sensor_id;sensor_type;location;lat;lon;timestamp;temperature;humidity
26164;DHT22;13914;48.178;11.716;2023-12-20T00:00:13;6.00;14.80
26164;DHT22;13914;48.178;11.716;2023-12-20T00:02:39;6.00;14.80
26164;DHT22;13914;48.178;11.716;2023-12-20T00:05:05;6.00;14.80
26164;DHT22;13914;48.178;11.716;2023-12-20T00:07:31;6.00;15.40
26164;DHT22;13914;48.178;11.716;2023-12-20T00:09:57;6.00;14.80
26164;DHT22;13914;48.178;11.716;2023-12-20T00:12:22;6.00;14.80
26164;DHT22;13914;48.178;11.716;2023-12-20T00:14:48;6.00;14.80
26164;DHT22;13914;48.178;11.716;2023-12-20T00:17:14;6.00;14.80
26164;DHT22;13914;48.178;11.716;2023-12-20T00:19:40;6.00;14.80
26164;DHT22;13914;48.178;11.716;2023-12-20T00:22:05;6.00;14.80
26164;DHT22;13914;48.178;11.716;2023-12-20T00:24:31;6.00;14.90
26164;DHT22;13914;48.178;11.716;2023-12-20T00:26:56;6.00;15.00
26164;DHT22;13914;48.178;11.716;2023-12-20T00:29:22;6.00;15.00
26164;DHT22;13914;48.178;11.716;2023-12-20T00:31:48;6.00;14.90
26164;DHT22;13914;48.178;11.716;2023-12-20T00:34:13;6.00;15.00
26164;DHT22;13914;48.178;11.716;2023-12-20T00:36:39;5.90;14.90
26164;DHT22;13914;48.178;11.716;2023-12-20T00:39:05;6.00;15.00
26164;DHT22;13914;48.178;11.716;2023-12-20T00:41:32;6.00;15.00
26164;DHT22;13914;48.178;11.716;2023-12-20T00:43:57;5.90;15.00
26164;DHT22;13914;48.178;11.716;2023-12-20T00:46:23;5.90;15.00
26164;DHT22;13914;48.178;11.716;2023-12-20T00:48:49;5.90;15.00
26164;DHT22;13914;48.178;11.716;2023-12-20T00:51:14;5.90;15.00
26164;DHT22;13914;48.178;11.716;2023-12-20T00:53:40;5.90;15.00
26164;DHT22;13914;48.178;11.716;2023-12-20T00:56:05;5.90;15.00
26164;DHT22;13914;48.178;11.716;2023-12-20T00:58:31;5.90;15.00
26164;DHT22;13914;48.178;11.716;2023-12-20T01:00:57;5.90;15.00
26164;DHT22;13914;48.178;11.716;2023-12-20T01:03:23;5.90;15.00
26164;DHT22;13914;48.178;11.716;2023-12-20T01:05:49;5.90;15.10
26164;DHT22;13914;48.178;11.716;2023-12-20T01:08:14;5.90;15.10
26164;DHT22;13914;48.178;11.716;2023-12-20T01:10:40;5.90;15.10
26164;DHT22;13914;48.178;11.716;2023-12-20T01:13:06;5.90;15.10
26164;DHT22;13914;48.178;11.716;2023-12-20T01:15:31;5.90;15.10
26164;DHT22;13914;48.178;11.716;2023-12-20T01:17:57;5.90;15.10
26164;DHT22;13914;48.178;11.716;2023-12-20T01:20:24;5.90;15.10
26164;DHT22;13914;48.178;11.716;2023-12-20T01:22:51;5.90;15.10
26164;DHT22;13914;48.178;11.716;2023-12-20T01:25:16;5.90;15.10
26164;DHT22;13914;48.178;11.716;2023-12-20T01:27:42;5.80;15.10
26164;DHT22;13914;48.178;11.716;2023-12-20T01:30:08;5.90;15.20
26164;DHT22;13914;48.178;11.716;2023-12-20T01:32:34;5.90;15.20
26164;DHT22;13914;48.178;11.716;2023-12-20T01:34:59;5.90;15.20
26164;DHT22;13914;48.178;11.716;2023-12-20T01:37:25;5.80;15.20
26164;DHT22;13914;48.178;11.716;2023-12-20T01:39:51;5.80;15.20
26164;DHT22;13914;48.178;11.716;2023-12-20T01:42:18;5.80;15.20
26164;DHT22;13914;48.178;11.716;2023-12-20T01:44:43;5.90;15.30
26164;DHT22;13914;48.178;11.716;2023-12-20T01:47:09;5.80;15.20
26164;DHT22;13914;48.178;11.716;2023-12-20T01:49:35;5.90;15.30
26164;DHT22;13914;48.178;11.716;2023-12-20T01:52:00;5.90;15.20
26164;DHT22;13914;48.178;11.716;2023-12-20T01:54:26;5.80;15.20
26164;DHT22;13914;48.178;11.716;2023-12-20T01:56:52;5.80;15.10
26164;DHT22;13914;48.178;11.716;2023-12-20T01:59:18;5.80;15.20
26164;DHT22;13914;48.178;11.716;2023-12-20T02:01:44;5.90;15.20
26164;DHT22;13914;48.178;11.716;2023-12-20T02:04:10;5.80;15.10
26164;DHT22;13914;48.178;11.716;2023-12-20T02:06:35;5.90;15.00
26164;DHT22;13914;48.178;11.716;2023-12-20T02:09:02;5.80;15.10
26164;DHT22;13914;48.178;11.716;2023-12-20T02:11:28;5.90;15.10
26164;DHT22;13914;48.178;11.716;2023-12-20T02:13:54;5.90;15.10
26164;DHT22;13914;48.178;11.716;2023-12-20T02:16:20;5.90;15.10
26164;DHT22;13914;48.178;11.716;2023-12-20T02:18:46;5.90;15.20
26164;DHT22;13914;48.178;11.716;2023-12-20T02:21:12;5.90;15.10
26164;DHT22;13914;48.178;11.716;2023-12-20T02:23:38;5.90;15.20
26164;DHT22;13914;48.178;11.716;2023-12-20T02:26:03;5.90;15.20
26164;DHT22;13914;48.178;11.716;2023-12-20T02:28:29;5.90;15.20
26164;DHT22;13914;48.178;11.716;2023-12-20T02:30:56;5.90;15.20
26164;DHT22;13914;48.178;11.716;2023-12-20T02:33:21;5.90;15.20
26164;DHT22;13914;48.178;11.716;2023-12-20T02:35:47;5.90;15.30
26164;DHT22;13914;48.178;11.716;2023-12-20T02:38:13;5.90;15.20
26164;DHT22;13914;48.178;11.716;2023-12-20T02:40:38;5.90;15.20
26164;DHT22;13914;48.178;11.716;2023-12-20T02:43:04;5.90;15.20
26164;DHT22;13914;48.178;11.716;2023-12-20T02:45:30;5.90;15.10
26164;DHT22;13914;48.178;11.716;2023-12-20T02:47:55;5.90;14.90
26164;DHT22;13914;48.178;11.716;2023-12-20T02:50:21;6.00;15.00
26164;DHT22;13914;48.178;11.716;2023-12-20T02:52:47;6.00;14.30
26164;DHT22;13914;48.178;11.716;2023-12-20T02:55:12;6.00;14.70
26164;DHT22;13914;48.178;11.716;2023-12-20T02:57:38;6.00;14.80
26164;DHT22;13914;48.178;11.716;2023-12-20T03:00:10;6.00;14.90
26164;DHT22;13914;48.178;11.716;2023-12-20T03:02:36;6.00;15.00
26164;DHT22;13914;48.178;11.716;2023-12-20T03:05:02;6.00;15.00
26164;DHT22;13914;48.178;11.716;2023-12-20T03:07:28;6.00;15.10
26164;DHT22;13914;48.178;11.716;2023-12-20T03:09:54;6.00;15.10
26164;DHT22;13914;48.178;11.716;2023-12-20T03:12:19;6.00;15.10
26164;DHT22;13914;48.178;11.716;2023-12-20T03:14:45;6.10;15.20
26164;DHT22;13914;48.178;11.716;2023-12-20T03:17:11;6.10;15.20
26164;DHT22;13914;48.178;11.716;2023-12-20T03:19:36;6.10;15.10
26164;DHT22;13914;48.178;11.716;2023-12-20T03:22:02;6.10;15.10
26164;DHT22;13914;48.178;11.716;2023-12-20T03:24:28;6.10;15.20
26164;DHT22;13914;48.178;11.716;2023-12-20T03:26:54;6.10;15.00
26164;DHT22;13914;48.178;11.716;2023-12-20T03:29:19;6.10;14.60
26164;DHT22;13914;48.178;11.716;2023-12-20T03:31:45;6.10;14.70
26164;DHT22;13914;48.178;11.716;2023-12-20T03:34:11;6.20;14.70
26164;DHT22;13914;48.178;11.716;2023-12-20T03:36:37;6.20;14.80
26164;DHT22;13914;48.178;11.716;2023-12-20T03:39:02;6.20;14.90
26164;DHT22;13914;48.178;11.716;2023-12-20T03:41:28;6.20;15.00
26164;DHT22;13914;48.178;11.716;2023-12-20T03:43:54;6.20;14.90
26164;DHT22;13914;48.178;11.716;2023-12-20T03:46:19;6.20;14.80
26164;DHT22;13914;48.178;11.716;2023-12-20T03:48:45;6.20;14.40
26164;DHT22;13914;48.178;11.716;2023-12-20T03:51:11;6.20;14.50
26164;DHT22;13914;48.178;11.716;2023-12-20T03:53:37;6.30;15.30
26164;DHT22;13914;48.178;11.716;2023-12-20T03:56:03;6.30;14.60
26164;DHT22;13914;48.178;11.716;2023-12-20T03:58:29;6.30;14.20
26164;DHT22;13914;48.178;11.716;2023-12-20T04:00:54;6.30;14.40
26164;DHT22;13914;48.178;11.716;2023-12-20T04:03:20;6.30;14.40
26164;DHT22;13914;48.178;11.716;2023-12-20T04:05:46;6.30;14.20
26164;DHT22;13914;48.178;11.716;2023-12-20T04:08:11;6.40;14.40
26164;DHT22;13914;48.178;11.716;2023-12-20T04:10:37;6.40;14.20
26164;DHT22;13914;48.178;11.716;2023-12-20T04:13:03;6.40;14.30
26164;DHT22;13914;48.178;11.716;2023-12-20T04:15:29;6.40;14.50
26164;DHT22;13914;48.178;11.716;2023-12-20T04:17:55;6.40;14.60
26164;DHT22;13914;48.178;11.716;2023-12-20T04:20:21;6.50;15.30
26164;DHT22;13914;48.178;11.716;2023-12-20T04:22:46;6.50;14.80
26164;DHT22;13914;48.178;11.716;2023-12-20T04:25:12;6.50;14.70
26164;DHT22;13914;48.178;11.716;2023-12-20T04:27:38;6.50;14.80
26164;DHT22;13914;48.178;11.716;2023-12-20T04:30:03;6.50;14.80
26164;DHT22;13914;48.178;11.716;2023-12-20T04:32:29;6.50;14.90
26164;DHT22;13914;48.178;11.716;2023-12-20T04:34:55;6.50;15.00
26164;DHT22;13914;48.178;11.716;2023-12-20T04:37:21;6.50;15.00
26164;DHT22;13914;48.178;11.716;2023-12-20T04:39:46;6.60;15.10
26164;DHT22;13914;48.178;11.716;2023-12-20T04:42:12;6.60;15.70
26164;DHT22;13914;48.178;11.716;2023-12-20T04:44:38;6.60;15.10
26164;DHT22;13914;48.178;11.716;2023-12-20T04:47:03;6.60;15.20
26164;DHT22;13914;48.178;11.716;2023-12-20T04:49:29;6.60;15.30
26164;DHT22;13914;48.178;11.716;2023-12-20T04:51:55;6.60;15.30
26164;DHT22;13914;48.178;11.716;2023-12-20T04:54:21;6.60;15.40
26164;DHT22;13914;48.178;11.716;2023-12-20T04:56:46;6.70;15.40
26164;DHT22;13914;48.178;11.716;2023-12-20T04:59:12;6.60;15.40
26164;DHT22;13914;48.178;11.716;2023-12-20T05:01:38;6.60;15.60
26164;DHT22;13914;48.178;11.716;2023-12-20T05:04:04;6.60;15.60
26164;DHT22;13914;48.178;11.716;2023-12-20T05:06:30;6.60;15.60
26164;DHT22;13914;48.178;11.716;2023-12-20T05:08:55;6.60;15.80
26164;DHT22;13914;48.178;11.716;2023-12-20T05:11:21;6.60;15.90
26164;DHT22;13914;48.178;11.716;2023-12-20T05:13:47;6.60;15.90
26164;DHT22;13914;48.178;11.716;2023-12-20T05:16:13;6.60;16.00
26164;DHT22;13914;48.178;11.716;2023-12-20T05:18:39;6.70;16.00
26164;DHT22;13914;48.178;11.716;2023-12-20T05:21:05;6.60;16.30
26164;DHT22;13914;48.178;11.716;2023-12-20T05:23:31;6.60;16.40
26164;DHT22;13914;48.178;11.716;2023-12-20T05:25:56;6.60;16.40
26164;DHT22;13914;48.178;11.716;2023-12-20T05:28:22;6.60;16.70
26164;DHT22;13914;48.178;11.716;2023-12-20T05:30:48;6.60;16.70
26164;DHT22;13914;48.178;11.716;2023-12-20T05:33:14;6.60;16.70
26164;DHT22;13914;48.178;11.716;2023-12-20T05:35:39;6.60;16.70
26164;DHT22;13914;48.178;11.716;2023-12-20T05:38:05;6.60;17.00
26164;DHT22;13914;48.178;11.716;2023-12-20T05:40:31;6.60;17.00
26164;DHT22;13914;48.178;11.716;2023-12-20T05:42:57;6.60;17.20
26164;DHT22;13914;48.178;11.716;2023-12-20T05:45:22;6.50;17.10
26164;DHT22;13914;48.178;11.716;2023-12-20T05:47:48;6.50;17.20
26164;DHT22;13914;48.178;11.716;2023-12-20T05:50:14;6.50;17.20
26164;DHT22;13914;48.178;11.716;2023-12-20T05:52:40;6.50;17.30
26164;DHT22;13914;48.178;11.716;2023-12-20T05:55:06;6.60;17.50
26164;DHT22;13914;48.178;11.716;2023-12-20T05:57:32;6.50;17.60
26164;DHT22;13914;48.178;11.716;2023-12-20T05:59:58;6.50;17.50
26164;DHT22;13914;48.178;11.716;2023-12-20T06:02:23;6.50;17.30
26164;DHT22;13914;48.178;11.716;2023-12-20T06:04:49;6.50;17.40
26164;DHT22;13914;48.178;11.716;2023-12-20T06:07:18;6.40;17.30
26164;DHT22;13914;48.178;11.716;2023-12-20T06:09:44;6.40;17.50
26164;DHT22;13914;48.178;11.716;2023-12-20T06:12:10;6.40;17.50
26164;DHT22;13914;48.178;11.716;2023-12-20T06:14:36;6.40;17.60
26164;DHT22;13914;48.178;11.716;2023-12-20T06:17:02;6.40;17.50
26164;DHT22;13914;48.178;11.716;2023-12-20T06:19:27;6.30;17.50
26164;DHT22;13914;48.178;11.716;2023-12-20T06:21:53;6.40;17.80
26164;DHT22;13914;48.178;11.716;2023-12-20T06:24:19;6.30;17.60
26164;DHT22;13914;48.178;11.716;2023-12-20T06:26:45;6.40;17.60
26164;DHT22;13914;48.178;11.716;2023-12-20T06:29:10;6.30;17.40
26164;DHT22;13914;48.178;11.716;2023-12-20T06:31:36;6.30;17.50
26164;DHT22;13914;48.178;11.716;2023-12-20T06:34:02;6.30;17.50
26164;DHT22;13914;48.178;11.716;2023-12-20T06:36:28;6.30;17.60
26164;DHT22;13914;48.178;11.716;2023-12-20T06:38:54;6.30;17.50
26164;DHT22;13914;48.178;11.716;2023-12-20T06:41:20;6.20;17.50
26164;DHT22;13914;48.178;11.716;2023-12-20T06:43:45;6.20;17.70
26164;DHT22;13914;48.178;11.716;2023-12-20T06:46:11;6.20;17.70
26164;DHT22;13914;48.178;11.716;2023-12-20T06:48:38;6.20;17.70
26164;DHT22;13914;48.178;11.716;2023-12-20T06:51:05;6.20;17.60
26164;DHT22;13914;48.178;11.716;2023-12-20T06:53:31;6.20;17.80
26164;DHT22;13914;48.178;11.716;2023-12-20T06:55:56;6.10;17.70
26164;DHT22;13914;48.178;11.716;2023-12-20T06:58:22;6.20;17.80
26164;DHT22;13914;48.178;11.716;2023-12-20T07:00:48;6.20;17.70
26164;DHT22;13914;48.178;11.716;2023-12-20T07:03:14;6.10;17.70
26164;DHT22;13914;48.178;11.716;2023-12-20T07:05:40;6.10;17.70
26164;DHT22;13914;48.178;11.716;2023-12-20T07:08:06;6.10;17.70
26164;DHT22;13914;48.178;11.716;2023-12-20T07:10:32;6.10;17.80
26164;DHT22;13914;48.178;11.716;2023-12-20T07:12:57;6.00;17.60
26164;DHT22;13914;48.178;11.716;2023-12-20T07:15:23;6.00;17.60
26164;DHT22;13914;48.178;11.716;2023-12-20T07:17:49;6.10;17.70
26164;DHT22;13914;48.178;11.716;2023-12-20T07:20:14;6.00;17.80
26164;DHT22;13914;48.178;11.716;2023-12-20T07:22:40;6.00;17.70
26164;DHT22;13914;48.178;11.716;2023-12-20T07:25:06;6.00;17.70
26164;DHT22;13914;48.178;11.716;2023-12-20T07:27:32;6.00;17.60
26164;DHT22;13914;48.178;11.716;2023-12-20T07:29:58;6.00;17.80
26164;DHT22;13914;48.178;11.716;2023-12-20T07:32:24;6.00;17.80
26164;DHT22;13914;48.178;11.716;2023-12-20T07:34:49;6.00;17.90
26164;DHT22;13914;48.178;11.716;2023-12-20T07:37:15;5.90;17.80
26164;DHT22;13914;48.178;11.716;2023-12-20T07:39:41;5.90;17.90
26164;DHT22;13914;48.178;11.716;2023-12-20T07:42:07;5.90;17.80
26164;DHT22;13914;48.178;11.716;2023-12-20T07:44:33;5.90;18.00
26164;DHT22;13914;48.178;11.716;2023-12-20T07:46:59;5.90;17.90
26164;DHT22;13914;48.178;11.716;2023-12-20T07:49:26;5.90;17.90
26164;DHT22;13914;48.178;11.716;2023-12-20T07:51:52;5.90;17.80
26164;DHT22;13914;48.178;11.716;2023-12-20T07:54:17;5.90;17.90
26164;DHT22;13914;48.178;11.716;2023-12-20T07:56:43;5.80;18.00
26164;DHT22;13914;48.178;11.716;2023-12-20T07:59:09;5.80;18.00
26164;DHT22;13914;48.178;11.716;2023-12-20T08:01:35;5.80;17.90
26164;DHT22;13914;48.178;11.716;2023-12-20T08:04:01;5.80;18.10
26164;DHT22;13914;48.178;11.716;2023-12-20T08:06:27;5.80;18.00
26164;DHT22;13914;48.178;11.716;2023-12-20T08:08:52;5.80;18.20
26164;DHT22;13914;48.178;11.716;2023-12-20T08:11:18;5.80;18.10
26164;DHT22;13914;48.178;11.716;2023-12-20T08:13:44;5.80;18.30
26164;DHT22;13914;48.178;11.716;2023-12-20T08:16:09;5.80;18.20
26164;DHT22;13914;48.178;11.716;2023-12-20T08:18:36;5.80;18.20
26164;DHT22;13914;48.178;11.716;2023-12-20T08:21:02;5.80;18.30
26164;DHT22;13914;48.178;11.716;2023-12-20T08:23:28;5.80;18.30
26164;DHT22;13914;48.178;11.716;2023-12-20T08:25:54;5.70;18.50
26164;DHT22;13914;48.178;11.716;2023-12-20T08:28:19;5.80;18.30
26164;DHT22;13914;48.178;11.716;2023-12-20T08:30:45;5.80;18.30
26164;DHT22;13914;48.178;11.716;2023-12-20T08:33:11;5.80;18.30
26164;DHT22;13914;48.178;11.716;2023-12-20T08:35:38;5.80;18.20
26164;DHT22;13914;48.178;11.716;2023-12-20T08:38:05;5.80;18.20
26164;DHT22;13914;48.178;11.716;2023-12-20T08:40:31;5.80;18.20
26164;DHT22;13914;48.178;11.716;2023-12-20T08:42:56;5.80;18.20
26164;DHT22;13914;48.178;11.716;2023-12-20T08:45:22;5.80;18.40
26164;DHT22;13914;48.178;11.716;2023-12-20T08:47:48;5.80;18.30
26164;DHT22;13914;48.178;11.716;2023-12-20T08:50:13;5.80;18.30
26164;DHT22;13914;48.178;11.716;2023-12-20T08:52:40;5.80;18.30
26164;DHT22;13914;48.178;11.716;2023-12-20T08:55:06;5.80;18.30
26164;DHT22;13914;48.178;11.716;2023-12-20T08:57:32;5.70;18.40
26164;DHT22;13914;48.178;11.716;2023-12-20T08:59:59;5.80;18.30
26164;DHT22;13914;48.178;11.716;2023-12-20T09:02:24;5.80;18.30
26164;DHT22;13914;48.178;11.716;2023-12-20T09:04:50;5.80;18.40
26164;DHT22;13914;48.178;11.716;2023-12-20T09:07:22;5.70;18.20
26164;DHT22;13914;48.178;11.716;2023-12-20T09:09:48;5.80;18.30
26164;DHT22;13914;48.178;11.716;2023-12-20T09:12:14;5.80;18.20
26164;DHT22;13914;48.178;11.716;2023-12-20T09:14:40;5.80;18.20
26164;DHT22;13914;48.178;11.716;2023-12-20T09:17:06;5.80;18.20
26164;DHT22;13914;48.178;11.716;2023-12-20T09:19:34;5.80;18.20
26164;DHT22;13914;48.178;11.716;2023-12-20T09:21:59;5.80;18.20
26164;DHT22;13914;48.178;11.716;2023-12-20T09:24:26;5.80;18.20
26164;DHT22;13914;48.178;11.716;2023-12-20T09:26:51;5.80;18.30
26164;DHT22;13914;48.178;11.716;2023-12-20T09:29:17;5.80;18.30
26164;DHT22;13914;48.178;11.716;2023-12-20T09:31:44;5.80;18.30
26164;DHT22;13914;48.178;11.716;2023-12-20T09:34:11;5.80;18.40
26164;DHT22;13914;48.178;11.716;2023-12-20T09:36:37;5.80;18.40
26164;DHT22;13914;48.178;11.716;2023-12-20T09:39:06;5.80;18.30
26164;DHT22;13914;48.178;11.716;2023-12-20T09:41:31;5.80;18.30
26164;DHT22;13914;48.178;11.716;2023-12-20T09:44:02;5.80;18.50
26164;DHT22;13914;48.178;11.716;2023-12-20T09:46:28;5.80;18.50
26164;DHT22;13914;48.178;11.716;2023-12-20T09:48:55;5.80;18.50
26164;DHT22;13914;48.178;11.716;2023-12-20T09:51:20;5.80;18.50
26164;DHT22;13914;48.178;11.716;2023-12-20T09:53:46;5.80;18.60
26164;DHT22;13914;48.178;11.716;2023-12-20T09:56:12;5.80;18.50
26164;DHT22;13914;48.178;11.716;2023-12-20T09:58:38;5.90;18.60
26164;DHT22;13914;48.178;11.716;2023-12-20T10:01:05;5.80;18.80
26164;DHT22;13914;48.178;11.716;2023-12-20T10:03:31;5.90;18.70
26164;DHT22;13914;48.178;11.716;2023-12-20T10:05:57;5.90;19.00
26164;DHT22;13914;48.178;11.716;2023-12-20T10:08:26;5.90;18.80
26164;DHT22;13914;48.178;11.716;2023-12-20T10:10:51;5.90;18.80
26164;DHT22;13914;48.178;11.716;2023-12-20T10:13:17;5.90;18.70
26164;DHT22;13914;48.178;11.716;2023-12-20T10:15:43;5.90;18.70
26164;DHT22;13914;48.178;11.716;2023-12-20T10:18:09;5.90;18.80
26164;DHT22;13914;48.178;11.716;2023-12-20T10:20:35;5.90;18.90
26164;DHT22;13914;48.178;11.716;2023-12-20T10:23:00;5.90;18.80
26164;DHT22;13914;48.178;11.716;2023-12-20T10:25:27;5.90;18.80
26164;DHT22;13914;48.178;11.716;2023-12-20T10:28:08;5.90;18.60
26164;DHT22;13914;48.178;11.716;2023-12-20T10:30:35;5.90;18.80
26164;DHT22;13914;48.178;11.716;2023-12-20T10:33:01;6.00;19.00
26164;DHT22;13914;48.178;11.716;2023-12-20T10:35:27;6.00;19.00
26164;DHT22;13914;48.178;11.716;2023-12-20T10:37:55;6.00;19.00
26164;DHT22;13914;48.178;11.716;2023-12-20T10:40:25;6.00;19.00
26164;DHT22;13914;48.178;11.716;2023-12-20T10:42:55;6.00;18.90
26164;DHT22;13914;48.178;11.716;2023-12-20T10:45:22;6.00;18.90
26164;DHT22;13914;48.178;11.716;2023-12-20T10:47:49;6.10;19.10
26164;DHT22;13914;48.178;11.716;2023-12-20T10:50:15;6.10;19.30
26164;DHT22;13914;48.178;11.716;2023-12-20T10:52:41;6.10;19.30
26164;DHT22;13914;48.178;11.716;2023-12-20T10:55:08;6.10;19.10
26164;DHT22;13914;48.178;11.716;2023-12-20T10:57:34;6.20;19.20
26164;DHT22;13914;48.178;11.716;2023-12-20T11:00:02;6.20;19.40
26164;DHT22;13914;48.178;11.716;2023-12-20T11:02:33;6.20;19.40
26164;DHT22;13914;48.178;11.716;2023-12-20T11:05:06;6.20;19.20
26164;DHT22;13914;48.178;11.716;2023-12-20T11:07:43;6.30;19.20
26164;DHT22;13914;48.178;11.716;2023-12-20T11:10:29;6.30;19.20
26164;DHT22;13914;48.178;11.716;2023-12-20T11:15:35;6.30;19.00
26164;DHT22;13914;48.178;11.716;2023-12-20T11:18:03;6.30;18.90
26164;DHT22;13914;48.178;11.716;2023-12-20T11:20:36;6.40;19.00
26164;DHT22;13914;48.178;11.716;2023-12-20T11:23:03;6.30;18.90
26164;DHT22;13914;48.178;11.716;2023-12-20T11:25:29;6.40;18.90
26164;DHT22;13914;48.178;11.716;2023-12-20T11:28:11;6.40;18.90
26164;DHT22;13914;48.178;11.716;2023-12-20T11:30:40;6.40;18.70
26164;DHT22;13914;48.178;11.716;2023-12-20T11:33:07;6.40;18.80
26164;DHT22;13914;48.178;11.716;2023-12-20T11:35:33;6.40;19.30
26164;DHT22;13914;48.178;11.716;2023-12-20T11:38:00;6.40;18.70
26164;DHT22;13914;48.178;11.716;2023-12-20T11:40:26;6.50;18.70
26164;DHT22;13914;48.178;11.716;2023-12-20T11:42:52;6.40;18.50
26164;DHT22;13914;48.178;11.716;2023-12-20T11:45:23;6.40;18.50
26164;DHT22;13914;48.178;11.716;2023-12-20T11:47:50;6.50;18.50
26164;DHT22;13914;48.178;11.716;2023-12-20T11:50:17;6.50;18.40
26164;DHT22;13914;48.178;11.716;2023-12-20T11:52:43;6.50;18.50
26164;DHT22;13914;48.178;11.716;2023-12-20T11:55:09;6.50;18.40
26164;DHT22;13914;48.178;11.716;2023-12-20T11:57:35;6.50;18.30
26164;DHT22;13914;48.178;11.716;2023-12-20T12:00:01;6.50;18.20
26164;DHT22;13914;48.178;11.716;2023-12-20T12:02:28;6.50;18.20
26164;DHT22;13914;48.178;11.716;2023-12-20T12:04:54;6.50;18.20
26164;DHT22;13914;48.178;11.716;2023-12-20T12:07:20;6.60;18.20
26164;DHT22;13914;48.178;11.716;2023-12-20T12:09:46;6.50;18.10
26164;DHT22;13914;48.178;11.716;2023-12-20T12:12:13;6.60;18.10
26164;DHT22;13914;48.178;11.716;2023-12-20T12:14:39;6.60;18.20
26164;DHT22;13914;48.178;11.716;2023-12-20T12:17:12;6.60;18.20
26164;DHT22;13914;48.178;11.716;2023-12-20T12:19:39;6.60;18.10
26164;DHT22;13914;48.178;11.716;2023-12-20T12:22:05;6.60;18.10
26164;DHT22;13914;48.178;11.716;2023-12-20T12:24:34;6.70;18.20
26164;DHT22;13914;48.178;11.716;2023-12-20T12:26:59;6.70;18.20
26164;DHT22;13914;48.178;11.716;2023-12-20T12:29:25;6.70;18.10
26164;DHT22;13914;48.178;11.716;2023-12-20T12:31:51;6.70;18.10
26164;DHT22;13914;48.178;11.716;2023-12-20T12:34:19;6.70;18.10
26164;DHT22;13914;48.178;11.716;2023-12-20T12:36:45;6.70;18.10
26164;DHT22;13914;48.178;11.716;2023-12-20T12:39:14;6.70;18.00
26164;DHT22;13914;48.178;11.716;2023-12-20T12:41:41;6.70;18.00
26164;DHT22;13914;48.178;11.716;2023-12-20T12:44:06;6.70;18.00
26164;DHT22;13914;48.178;11.716;2023-12-20T12:46:32;6.80;18.00
26164;DHT22;13914;48.178;11.716;2023-12-20T12:48:58;6.80;17.90
26164;DHT22;13914;48.178;11.716;2023-12-20T12:51:23;6.80;17.90
26164;DHT22;13914;48.178;11.716;2023-12-20T12:53:49;6.80;17.90
26164;DHT22;13914;48.178;11.716;2023-12-20T12:56:15;6.80;17.80
26164;DHT22;13914;48.178;11.716;2023-12-20T12:58:41;6.80;17.70
26164;DHT22;13914;48.178;11.716;2023-12-20T13:01:07;6.80;17.70
26164;DHT22;13914;48.178;11.716;2023-12-20T13:03:33;6.70;17.70
26164;DHT22;13914;48.178;11.716;2023-12-20T13:05:59;6.80;17.80
26164;DHT22;13914;48.178;11.716;2023-12-20T13:08:25;6.80;17.80
26164;DHT22;13914;48.178;11.716;2023-12-20T13:10:51;6.70;17.90
26164;DHT22;13914;48.178;11.716;2023-12-20T13:13:17;6.80;17.90
26164;DHT22;13914;48.178;11.716;2023-12-20T13:15:42;6.70;17.80
26164;DHT22;13914;48.178;11.716;2023-12-20T13:18:13;6.80;17.90
26164;DHT22;13914;48.178;11.716;2023-12-20T13:20:39;6.70;17.90
26164;DHT22;13914;48.178;11.716;2023-12-20T13:23:05;6.70;17.80
26164;DHT22;13914;48.178;11.716;2023-12-20T13:25:31;6.70;17.90
26164;DHT22;13914;48.178;11.716;2023-12-20T13:27:57;6.70;17.80
26164;DHT22;13914;48.178;11.716;2023-12-20T13:30:22;6.60;17.80
26164;DHT22;13914;48.178;11.716;2023-12-20T13:32:48;6.60;17.80
26164;DHT22;13914;48.178;11.716;2023-12-20T13:35:14;6.60;17.80
26164;DHT22;13914;48.178;11.716;2023-12-20T13:37:40;6.60;17.80
26164;DHT22;13914;48.178;11.716;2023-12-20T13:40:05;6.50;17.60
26164;DHT22;13914;48.178;11.716;2023-12-20T13:42:32;6.50;17.60
26164;DHT22;13914;48.178;11.716;2023-12-20T13:44:57;6.50;17.40
26164;DHT22;13914;48.178;11.716;2023-12-20T13:47:23;6.50;18.00
26164;DHT22;13914;48.178;11.716;2023-12-20T13:49:49;6.50;17.50
26164;DHT22;13914;48.178;11.716;2023-12-20T13:52:14;6.50;17.40
26164;DHT22;13914;48.178;11.716;2023-12-20T13:54:40;6.50;17.30
26164;DHT22;13914;48.178;11.716;2023-12-20T13:57:05;6.50;17.20
26164;DHT22;13914;48.178;11.716;2023-12-20T13:59:31;6.50;17.10
26164;DHT22;13914;48.178;11.716;2023-12-20T14:01:57;6.40;17.20
26164;DHT22;13914;48.178;11.716;2023-12-20T14:04:22;6.50;17.30
26164;DHT22;13914;48.178;11.716;2023-12-20T14:06:48;6.40;17.20
26164;DHT22;13914;48.178;11.716;2023-12-20T14:09:14;6.40;17.10
26164;DHT22;13914;48.178;11.716;2023-12-20T14:11:40;6.40;17.00
26164;DHT22;13914;48.178;11.716;2023-12-20T14:14:07;6.40;17.20
26164;DHT22;13914;48.178;11.716;2023-12-20T14:16:33;6.40;17.20
26164;DHT22;13914;48.178;11.716;2023-12-20T14:19:00;6.40;17.10
26164;DHT22;13914;48.178;11.716;2023-12-20T14:21:26;6.40;17.00
26164;DHT22;13914;48.178;11.716;2023-12-20T14:23:51;6.40;17.00
26164;DHT22;13914;48.178;11.716;2023-12-20T14:26:17;6.30;16.80
26164;DHT22;13914;48.178;11.716;2023-12-20T14:28:43;6.30;16.70
26164;DHT22;13914;48.178;11.716;2023-12-20T14:31:09;6.30;16.70
26164;DHT22;13914;48.178;11.716;2023-12-20T14:33:35;6.30;16.80
26164;DHT22;13914;48.178;11.716;2023-12-20T14:36:03;6.30;16.90
26164;DHT22;13914;48.178;11.716;2023-12-20T14:38:30;6.30;16.80
26164;DHT22;13914;48.178;11.716;2023-12-20T14:40:56;6.20;16.60
26164;DHT22;13914;48.178;11.716;2023-12-20T14:43:22;6.30;16.70
26164;DHT22;13914;48.178;11.716;2023-12-20T14:45:48;6.20;16.60
26164;DHT22;13914;48.178;11.716;2023-12-20T14:48:16;6.20;16.70
26164;DHT22;13914;48.178;11.716;2023-12-20T14:50:42;6.20;16.60
26164;DHT22;13914;48.178;11.716;2023-12-20T14:53:08;6.20;16.70
26164;DHT22;13914;48.178;11.716;2023-12-20T14:55:34;6.20;16.50
26164;DHT22;13914;48.178;11.716;2023-12-20T14:58:00;6.20;16.60
26164;DHT22;13914;48.178;11.716;2023-12-20T15:00:26;6.20;16.20
26164;DHT22;13914;48.178;11.716;2023-12-20T15:02:52;6.20;16.50
26164;DHT22;13914;48.178;11.716;2023-12-20T15:05:19;6.10;16.50
26164;DHT22;13914;48.178;11.716;2023-12-20T15:07:45;6.10;16.50
26164;DHT22;13914;48.178;11.716;2023-12-20T15:10:13;6.10;16.00
26164;DHT22;13914;48.178;11.716;2023-12-20T15:12:39;6.10;16.00
26164;DHT22;13914;48.178;11.716;2023-12-20T15:15:05;6.10;16.10
26164;DHT22;13914;48.178;11.716;2023-12-20T15:17:31;6.00;16.00
26164;DHT22;13914;48.178;11.716;2023-12-20T15:19:57;6.00;16.10
26164;DHT22;13914;48.178;11.716;2023-12-20T15:22:22;6.00;16.00
26164;DHT22;13914;48.178;11.716;2023-12-20T15:24:49;6.00;15.80